Time;durP1;ratioP1;P1;durP2;ratioP2;P2;SDS_P1;SDS_P2;PMS_P1;PMS_P2;Temp;Humidity;BMP_temperature;BMP_pressure;BME280_temperature;BME280_humidity;BME280_pressure;Samples;Min_cycle;Max_cycle;Signal;HPM_P1;HPM_P2
2022/01/02 00:01:15;;;;;;;7.10;2.80;;;;;;;;;;4983223;28;20057;-68
2022/01/02 00:03:45;;;;;;;5.95;2.80;;;;;;;;;;4989178;28;20050;-68
2022/01/02 00:06:14;;;;;;;6.93;3.03;;;;;;;;;;4988702;28;20082;-68
2022/01/02 00:08:43;;;;;;;5.30;2.65;;;;;;;;;;4981723;28;20137;-68
2022/01/02 00:11:12;;;;;;;5.25;2.53;;;;;;;;;;4987831;28;20133;-68
2022/01/02 00:13:47;;;;;;;8.23;2.97;;;;;;;;;;4988092;28;20077;-68
2022/01/02 00:16:18;;;;;;;4.80;2.80;;;;;;;;;;4991860;28;20092;-68
2022/01/02 00:19:03;;;;;;;4.32;2.60;;;;;;;;;;4990739;28;20199;-68
2022/01/02 00:21:33;;;;;;;4.78;2.95;;;;;;;;;;4992266;28;20133;-68
2022/01/02 00:24:05;;;;;;;5.78;2.55;;;;;;;;;;4993658;28;20057;-68
2022/01/02 00:26:38;;;;;;;5.07;2.63;;;;;;;;;;4992193;28;20062;-68
2022/01/02 00:29:07;;;;;;;5.82;2.22;;;;;;;;;;4987181;28;20121;-68
2022/01/02 00:31:36;;;;;;;6.88;2.65;;;;;;;;;;4991897;28;20086;-68
2022/01/02 00:34:06;;;;;;;4.78;2.70;;;;;;;;;;4988289;28;20133;-68
2022/01/02 00:36:34;;;;;;;4.93;3.05;;;;;;;;;;4991993;28;20565;-68
2022/01/02 00:39:03;;;;;;;5.10;2.75;;;;;;;;;;4991288;28;20093;-68
2022/01/02 00:41:34;;;;;;;4.85;2.80;;;;;;;;;;4991234;28;20574;-68
2022/01/02 00:44:11;;;;;;;4.85;2.40;;;;;;;;;;3697755;28;10020759;-69
2022/01/02 00:46:46;;;;;;;4.68;2.90;;;;;;;;;;2057761;28;10002009;-68
2022/01/02 00:49:18;;;;;;;5.20;2.65;;;;;;;;;;4989668;28;20046;-68
2022/01/02 00:51:48;;;;;;;9.57;2.83;;;;;;;;;;4989120;28;20185;-68
2022/01/02 00:54:17;;;;;;;5.05;2.90;;;;;;;;;;4991824;28;20157;-68
2022/01/02 00:56:46;;;;;;;4.13;2.80;;;;;;;;;;4992346;28;20133;-68
2022/01/02 00:59:20;;;;;;;5.80;2.55;;;;;;;;;;4991807;28;20050;-68
2022/01/02 01:01:50;;;;;;;5.73;2.87;;;;;;;;;;4992162;28;20137;-68
2022/01/02 01:04:21;;;;;;;5.15;2.80;;;;;;;;;;4991939;28;20042;-68
2022/01/02 01:06:51;;;;;;;5.05;3.10;;;;;;;;;;4992475;28;20129;-68
2022/01/02 01:09:19;;;;;;;6.50;2.90;;;;;;;;;;4986275;28;20050;-68
2022/01/02 01:11:48;;;;;;;6.65;2.65;;;;;;;;;;4991700;28;20137;-68
2022/01/02 01:14:16;;;;;;;7.05;2.78;;;;;;;;;;4987189;28;20058;-68
2022/01/02 01:16:46;;;;;;;4.72;2.33;;;;;;;;;;4991017;28;20131;-68
2022/01/02 01:19:14;;;;;;;4.75;2.70;;;;;;;;;;4990780;28;20462;-68
2022/01/02 01:21:44;;;;;;;4.70;2.50;;;;;;;;;;4991098;28;20287;-68
2022/01/02 01:24:12;;;;;;;5.72;3.00;;;;;;;;;;4989785;28;20051;-68
2022/01/02 01:26:40;;;;;;;4.97;3.15;;;;;;;;;;4988819;28;20431;-68
2022/01/02 01:29:09;;;;;;;6.32;2.97;;;;;;;;;;4991520;28;20049;-68
2022/01/02 01:31:37;;;;;;;6.38;3.00;;;;;;;;;;4990338;28;20277;-68
2022/01/02 01:34:06;;;;;;;5.35;2.88;;;;;;;;;;4992103;28;20050;-68
2022/01/02 01:36:34;;;;;;;4.47;2.47;;;;;;;;;;4990680;28;20133;-68
2022/01/02 01:39:04;;;;;;;8.48;3.20;;;;;;;;;;4991447;28;20125;-68
2022/01/02 01:41:35;;;;;;;7.72;3.05;;;;;;;;;;4988373;28;20069;-68
2022/01/02 01:44:20;;;;;;;5.68;2.65;;;;;;;;;;4989911;28;20149;-68
2022/01/02 01:46:54;;;;;;;6.65;3.28;;;;;;;;;;4990018;28;20049;-68
2022/01/02 01:49:26;;;;;;;5.68;2.53;;;;;;;;;;4990542;28;20050;-68
2022/01/02 01:51:55;;;;;;;3.33;2.33;;;;;;;;;;4989915;28;20042;-68
2022/01/02 01:54:25;;;;;;;4.65;2.53;;;;;;;;;;4990290;28;20065;-68
2022/01/02 01:56:54;;;;;;;6.43;3.00;;;;;;;;;;4988786;28;20145;-68
2022/01/02 01:59:23;;;;;;;6.20;3.20;;;;;;;;;;4985164;28;20145;-68
2022/01/02 02:01:51;;;;;;;5.50;3.00;;;;;;;;;;4990130;28;20069;-68
2022/01/02 02:04:19;;;;;;;6.25;3.17;;;;;;;;;;4990404;28;20050;-68
2022/01/02 02:06:48;;;;;;;4.97;2.95;;;;;;;;;;4989930;28;20133;-68
2022/01/02 02:09:16;;;;;;;5.78;3.22;;;;;;;;;;4985712;28;20480;-68
2022/01/02 02:11:46;;;;;;;5.15;2.85;;;;;;;;;;4989692;28;20138;-68
2022/01/02 02:14:15;;;;;;;7.78;3.00;;;;;;;;;;4989378;28;20054;-68
2022/01/02 02:16:43;;;;;;;4.57;2.75;;;;;;;;;;4989369;28;20071;-68
2022/01/02 02:19:11;;;;;;;6.13;3.00;;;;;;;;;;4990786;28;20133;-68
2022/01/02 02:21:41;;;;;;;5.68;3.30;;;;;;;;;;4989221;28;20108;-68
2022/01/02 02:24:09;;;;;;;6.32;3.10;;;;;;;;;;4989058;28;20068;-68
2022/01/02 02:26:38;;;;;;;6.70;3.40;;;;;;;;;;4990077;28;20078;-67
2022/01/02 02:29:07;;;;;;;4.75;2.65;;;;;;;;;;4980949;28;20051;-68
2022/01/02 02:31:35;;;;;;;7.28;3.38;;;;;;;;;;4981441;28;20138;-68
2022/01/02 02:34:04;;;;;;;6.15;3.22;;;;;;;;;;4974385;28;20454;-68
2022/01/02 02:36:32;;;;;;;10.85;3.42;;;;;;;;;;4981754;28;20046;-67
2022/01/02 02:39:02;;;;;;;6.05;3.45;;;;;;;;;;4989214;28;20185;-68
2022/01/02 02:41:34;;;;;;;6.00;3.15;;;;;;;;;;4981105;28;20078;-68
2022/01/02 02:44:07;;;;;;;4.23;2.77;;;;;;;;;;4951179;28;1099782;-68
2022/01/02 02:49:23;;;;;;;5.07;2.80;;;;;;;;;;4985778;28;20051;-68
2022/01/02 02:51:55;;;;;;;6.43;2.97;;;;;;;;;;4987722;28;20129;-67
2022/01/02 02:54:26;;;;;;;5.30;3.30;;;;;;;;;;4987414;28;20052;-68
2022/01/02 02:56:56;;;;;;;2.85;2.30;;;;;;;;;;4989525;28;20042;-68
2022/01/02 02:59:25;;;;;;;6.25;2.97;;;;;;;;;;4989816;28;20822;-67
2022/01/02 03:01:56;;;;;;;4.32;2.55;;;;;;;;;;4987525;28;20113;-68
2022/01/02 03:04:26;;;;;;;6.40;3.25;;;;;;;;;;330699;28;10022839;-68
2022/01/02 03:06:55;;;;;;;7.93;3.03;;;;;;;;;;4986016;28;20294;-68
2022/01/02 03:09:37;;;;;;;5.50;2.83;;;;;;;;;;4988079;28;20085;-68
2022/01/02 03:12:06;;;;;;;5.80;2.78;;;;;;;;;;4986656;28;20085;-68
2022/01/02 03:14:34;;;;;;;4.95;2.90;;;;;;;;;;4985949;28;20042;-68
2022/01/02 03:17:03;;;;;;;6.13;2.83;;;;;;;;;;4986495;28;20058;-68
2022/01/02 03:19:32;;;;;;;6.50;2.58;;;;;;;;;;4986603;28;20569;-68
2022/01/02 03:22:00;;;;;;;5.50;2.97;;;;;;;;;;4990404;28;20447;-68
2022/01/02 03:24:30;;;;;;;6.60;2.72;;;;;;;;;;4986379;28;20590;-67
2022/01/02 03:26:58;;;;;;;6.53;2.80;;;;;;;;;;4988978;28;20463;-68
2022/01/02 03:29:26;;;;;;;5.18;2.50;;;;;;;;;;4966799;28;20083;-69
2022/01/02 03:32:09;;;;;;;5.38;2.38;;;;;;;;;;3156566;28;10001968;-68
2022/01/02 03:34:38;;;;;;;7.05;3.05;;;;;;;;;;2579543;28;10002385;-68
2022/01/02 03:37:06;;;;;;;5.60;2.90;;;;;;;;;;4989724;28;20125;-68
2022/01/02 03:39:36;;;;;;;4.15;2.47;;;;;;;;;;4989439;28;20050;-68
2022/01/02 03:42:05;;;;;;;5.43;3.00;;;;;;;;;;4976849;28;20039;-68
2022/01/02 03:44:33;;;;;;;4.03;2.70;;;;;;;;;;4986677;28;20133;-68
2022/01/02 03:47:01;;;;;;;7.07;2.70;;;;;;;;;;4989577;28;20081;-68
2022/01/02 03:49:29;;;;;;;5.85;2.35;;;;;;;;;;4990282;28;20502;-67
2022/01/02 03:51:59;;;;;;;4.93;2.70;;;;;;;;;;4993486;28;20042;-67
2022/01/02 03:54:27;;;;;;;5.53;2.58;;;;;;;;;;4991719;28;20582;-68
2022/01/02 03:56:57;;;;;;;4.55;2.30;;;;;;;;;;4993365;28;20077;-68
2022/01/02 03:59:25;;;;;;;4.32;2.50;;;;;;;;;;4991746;28;20047;-68
2022/01/02 04:01:54;;;;;;;6.72;2.92;;;;;;;;;;4993001;28;20054;-68
2022/01/02 04:04:22;;;;;;;5.55;2.63;;;;;;;;;;4993290;28;20481;-68
2022/01/02 04:06:50;;;;;;;5.32;2.78;;;;;;;;;;4993300;28;20133;-68
2022/01/02 04:09:19;;;;;;;6.72;2.50;;;;;;;;;;4992853;28;20134;-67
2022/01/02 04:11:47;;;;;;;4.80;2.15;;;;;;;;;;4992807;28;20129;-67
2022/01/02 04:14:16;;;;;;;4.90;2.10;;;;;;;;;;4992540;28;20461;-67
2022/01/02 04:16:45;;;;;;;5.25;2.55;;;;;;;;;;4992772;28;20413;-67
2022/01/02 04:19:13;;;;;;;3.83;2.50;;;;;;;;;;4992413;28;20149;-67
2022/01/02 04:21:41;;;;;;;5.55;2.90;;;;;;;;;;4988336;28;20050;-68
2022/01/02 04:24:11;;;;;;;3.92;2.40;;;;;;;;;;4992262;28;20050;-67
2022/01/02 04:26:39;;;;;;;6.57;2.78;;;;;;;;;;4990510;28;20578;-67
2022/01/02 04:29:07;;;;;;;4.82;2.58;;;;;;;;;;4992169;28;20578;-68
2022/01/02 04:31:37;;;;;;;3.85;2.13;;;;;;;;;;4988816;28;20229;-67
2022/01/02 04:34:06;;;;;;;4.97;2.53;;;;;;;;;;4991175;28;20042;-67
2022/01/02 04:36:34;;;;;;;4.82;2.85;;;;;;;;;;4990593;28;20500;-67
2022/01/02 04:39:02;;;;;;;6.53;2.60;;;;;;;;;;4989959;28;20050;-67
2022/01/02 04:41:30;;;;;;;4.43;2.30;;;;;;;;;;4987043;28;20046;-67
2022/01/02 04:43:58;;;;;;;3.42;2.17;;;;;;;;;;4990318;28;20062;-67
2022/01/02 04:46:27;;;;;;;4.57;1.90;;;;;;;;;;4992032;28;20450;-67
2022/01/02 04:48:56;;;;;;;4.25;2.53;;;;;;;;;;4988540;28;20050;-67
2022/01/02 04:51:25;;;;;;;5.90;2.47;;;;;;;;;;4991489;28;20132;-67
2022/01/02 04:53:53;;;;;;;5.43;2.50;;;;;;;;;;4992866;28;20057;-67
2022/01/02 04:56:22;;;;;;;3.67;2.47;;;;;;;;;;4991826;28;20049;-67
2022/01/02 04:58:50;;;;;;;4.45;2.78;;;;;;;;;;4992346;28;20046;-67
2022/01/02 05:01:19;;;;;;;3.67;2.22;;;;;;;;;;4989562;28;20050;-67
2022/01/02 05:03:48;;;;;;;5.57;2.63;;;;;;;;;;4992505;28;20355;-67
2022/01/02 05:06:18;;;;;;;4.50;2.08;;;;;;;;;;4983418;28;20495;-67
2022/01/02 05:08:46;;;;;;;6.50;2.75;;;;;;;;;;4991345;28;20152;-67
2022/01/02 05:11:15;;;;;;;6.10;2.40;;;;;;;;;;4987437;28;20082;-67
2022/01/02 05:13:43;;;;;;;4.55;2.20;;;;;;;;;;4990234;28;20134;-67
2022/01/02 05:16:19;;;;;;;2.80;2.13;;;;;;;;;;527736;28;10022708;-68
2022/01/02 05:18:47;;;;;;;3.55;2.50;;;;;;;;;;4991978;28;20275;-67
2022/01/02 05:21:17;;;;;;;6.30;1.98;;;;;;;;;;4991142;28;20405;-67
2022/01/02 05:23:45;;;;;;;3.63;2.10;;;;;;;;;;4986045;28;20457;-67
2022/01/02 05:26:14;;;;;;;6.25;2.28;;;;;;;;;;4990375;28;20050;-67
2022/01/02 05:28:42;;;;;;;3.65;1.85;;;;;;;;;;4994343;28;20473;-67
2022/01/02 05:31:10;;;;;;;4.72;1.83;;;;;;;;;;4991600;28;20125;-67
2022/01/02 05:33:39;;;;;;;4.38;2.33;;;;;;;;;;4991825;28;20050;-67
2022/01/02 05:36:07;;;;;;;4.05;2.25;;;;;;;;;;4991325;28;20082;-68
2022/01/02 05:38:37;;;;;;;4.13;2.15;;;;;;;;;;4991510;28;20149;-66
2022/01/02 05:41:08;;;;;;;3.88;1.83;;;;;;;;;;4987588;28;20496;-67
2022/01/02 05:43:36;;;;;;;3.72;1.80;;;;;;;;;;4991672;28;20129;-67
2022/01/02 05:46:07;;;;;;;5.43;2.17;;;;;;;;;;4991799;28;20393;-68
2022/01/02 05:48:36;;;;;;;2.50;1.90;;;;;;;;;;4987173;28;20053;-68
2022/01/02 05:51:07;;;;;;;3.67;2.00;;;;;;;;;;4988374;28;20065;-68
2022/01/02 05:53:37;;;;;;;3.67;2.20;;;;;;;;;;4991160;28;20561;-68
2022/01/02 05:56:08;;;;;;;5.10;2.45;;;;;;;;;;4991236;28;20121;-68
2022/01/02 05:58:36;;;;;;;3.53;2.05;;;;;;;;;;4988090;28;20137;-67
2022/01/02 06:01:08;;;;;;;5.05;2.08;;;;;;;;;;4990775;28;20076;-68
2022/01/02 06:03:36;;;;;;;4.22;2.13;;;;;;;;;;4990952;28;20121;-68
2022/01/02 06:06:07;;;;;;;5.32;2.75;;;;;;;;;;4990398;28;20058;-67
2022/01/02 06:08:36;;;;;;;3.20;1.88;;;;;;;;;;4989159;28;20132;-68
2022/01/02 06:11:07;;;;;;;2.63;1.83;;;;;;;;;;4990748;28;20129;-68
2022/01/02 06:13:36;;;;;;;4.70;2.15;;;;;;;;;;4986580;28;20050;-68
2022/01/02 06:16:07;;;;;;;4.70;2.10;;;;;;;;;;4988009;28;20505;-68
2022/01/02 06:18:35;;;;;;;3.42;1.90;;;;;;;;;;4987620;28;20081;-68
2022/01/02 06:21:07;;;;;;;4.10;2.33;;;;;;;;;;4985906;28;20070;-68
2022/01/02 06:23:36;;;;;;;4.80;2.13;;;;;;;;;;4987659;28;20142;-68
2022/01/02 06:26:07;;;;;;;5.00;2.10;;;;;;;;;;4986451;28;20450;-68
2022/01/02 06:28:36;;;;;;;6.20;2.13;;;;;;;;;;4987141;28;20054;-67
2022/01/02 06:31:09;;;;;;;4.78;1.73;;;;;;;;;;4981133;28;20079;-68
2022/01/02 06:33:37;;;;;;;3.38;2.10;;;;;;;;;;4986044;28;20534;-68
2022/01/02 06:36:08;;;;;;;5.50;1.95;;;;;;;;;;4987893;28;20245;-68
2022/01/02 06:38:37;;;;;;;4.55;2.15;;;;;;;;;;4987911;28;20065;-68
2022/01/02 06:41:09;;;;;;;4.93;2.30;;;;;;;;;;4986417;28;20050;-68
2022/01/02 06:43:37;;;;;;;5.82;1.98;;;;;;;;;;4986669;28;20656;-68
2022/01/02 06:46:08;;;;;;;4.68;2.05;;;;;;;;;;4983214;28;20052;-68
2022/01/02 06:48:37;;;;;;;2.22;1.40;;;;;;;;;;4982724;28;20057;-68
2022/01/02 06:51:09;;;;;;;3.25;1.67;;;;;;;;;;4984793;28;20065;-68
2022/01/02 06:53:38;;;;;;;5.13;2.60;;;;;;;;;;4983973;28;20053;-68
2022/01/02 06:56:06;;;;;;;4.22;1.65;;;;;;;;;;4984086;28;20518;-68
2022/01/02 06:58:38;;;;;;;5.03;1.98;;;;;;;;;;4984620;28;20046;-68
2022/01/02 07:01:09;;;;;;;3.38;1.83;;;;;;;;;;4982845;28;20398;-68
2022/01/02 07:03:38;;;;;;;4.00;2.03;;;;;;;;;;4984527;28;20153;-68
2022/01/02 07:06:09;;;;;;;5.93;2.35;;;;;;;;;;4983039;28;20505;-68
2022/01/02 07:08:39;;;;;;;3.10;1.63;;;;;;;;;;4984245;28;20128;-68
2022/01/02 07:11:08;;;;;;;2.03;1.42;;;;;;;;;;4982788;28;20054;-68
2022/01/02 07:13:36;;;;;;;3.53;1.52;;;;;;;;;;4985678;28;20050;-68
2022/01/02 07:16:07;;;;;;;2.15;1.40;;;;;;;;;;4985532;28;20062;-68
2022/01/02 07:18:36;;;;;;;2.30;1.42;;;;;;;;;;4983801;28;20140;-68
2022/01/02 07:21:07;;;;;;;3.05;1.65;;;;;;;;;;4983439;28;20137;-68
2022/01/02 07:23:35;;;;;;;2.88;1.70;;;;;;;;;;4984647;28;20049;-68
2022/01/02 07:26:07;;;;;;;2.80;1.60;;;;;;;;;;4986147;28;20070;-68
2022/01/02 07:28:36;;;;;;;4.25;1.95;;;;;;;;;;4985977;28;20057;-68
2022/01/02 07:31:07;;;;;;;2.92;1.67;;;;;;;;;;4985629;28;20445;-68
2022/01/02 07:33:36;;;;;;;2.45;1.60;;;;;;;;;;4983638;28;20046;-68
2022/01/02 07:36:19;;;;;;;4.60;1.60;;;;;;;;;;2481763;28;10024074;-68
2022/01/02 07:38:47;;;;;;;4.45;1.92;;;;;;;;;;3264047;28;10001784;-68
2022/01/02 07:41:17;;;;;;;3.33;1.83;;;;;;;;;;4985347;28;20505;-68
2022/01/02 07:43:45;;;;;;;2.85;1.30;;;;;;;;;;4984638;28;20221;-68
2022/01/02 07:46:13;;;;;;;3.80;1.77;;;;;;;;;;4986322;28;20074;-67
2022/01/02 07:48:42;;;;;;;3.58;1.75;;;;;;;;;;4984047;28;20394;-69
2022/01/02 07:51:10;;;;;;;3.22;1.88;;;;;;;;;;4985924;28;20051;-68
2022/01/02 07:53:39;;;;;;;2.75;1.63;;;;;;;;;;4985731;28;20405;-68
2022/01/02 07:56:07;;;;;;;3.28;1.50;;;;;;;;;;4977454;28;20136;-68
2022/01/02 07:58:37;;;;;;;2.85;1.77;;;;;;;;;;4985310;28;20100;-68
2022/01/02 08:01:08;;;;;;;2.85;1.88;;;;;;;;;;4985076;28;20133;-68
2022/01/02 08:03:36;;;;;;;4.05;1.75;;;;;;;;;;4985902;28;20533;-68
2022/01/02 08:06:07;;;;;;;3.58;1.83;;;;;;;;;;4984505;28;20096;-68
2022/01/02 08:08:35;;;;;;;4.22;2.00;;;;;;;;;;4985731;28;20082;-69
2022/01/02 08:11:06;;;;;;;3.33;1.75;;;;;;;;;;4985498;28;20050;-69
2022/01/02 08:13:34;;;;;;;5.15;1.75;;;;;;;;;;4985367;28;20069;-69
2022/01/02 08:16:06;;;;;;;4.15;1.77;;;;;;;;;;4985114;28;20046;-69
2022/01/02 08:18:35;;;;;;;3.78;1.45;;;;;;;;;;4986254;28;20052;-69
2022/01/02 08:21:06;;;;;;;2.65;1.27;;;;;;;;;;4985226;28;20133;-69
2022/01/02 08:23:35;;;;;;;2.03;1.70;;;;;;;;;;4984792;28;20046;-69
2022/01/02 08:26:21;;;;;;;2.42;1.52;;;;;;;;;;4981204;28;20050;-69
2022/01/02 08:28:50;;;;;;;6.72;1.50;;;;;;;;;;4983537;28;20266;-69
2022/01/02 08:31:19;;;;;;;5.07;1.90;;;;;;;;;;4982018;28;20542;-69
2022/01/02 08:33:47;;;;;;;3.40;1.63;;;;;;;;;;4984409;28;20042;-66
2022/01/02 08:36:16;;;;;;;4.80;1.50;;;;;;;;;;4986971;28;20054;-66
2022/01/02 08:38:46;;;;;;;2.17;1.40;;;;;;;;;;4987748;28;20512;-67
2022/01/02 08:41:15;;;;;;;3.13;1.60;;;;;;;;;;4984616;28;20399;-67
2022/01/02 08:43:43;;;;;;;3.05;1.55;;;;;;;;;;4985329;28;20054;-68
2022/01/02 08:46:12;;;;;;;2.42;1.63;;;;;;;;;;4986637;28;20062;-68
2022/01/02 08:48:41;;;;;;;2.00;1.60;;;;;;;;;;4987816;28;20137;-68
2022/01/02 08:51:11;;;;;;;2.17;1.27;;;;;;;;;;4986679;28;20050;-68
2022/01/02 08:53:40;;;;;;;3.55;1.30;;;;;;;;;;4987732;28;20475;-68
2022/01/02 08:56:09;;;;;;;2.88;1.38;;;;;;;;;;4987967;28;20168;-68
2022/01/02 08:58:37;;;;;;;2.47;1.50;;;;;;;;;;4986131;28;20046;-68
2022/01/02 09:01:08;;;;;;;4.05;1.50;;;;;;;;;;4983216;28;20137;-68
2022/01/02 09:03:37;;;;;;;2.33;1.35;;;;;;;;;;4984496;28;20126;-68
2022/01/02 09:06:09;;;;;;;4.40;1.77;;;;;;;;;;4988718;28;20050;-68
2022/01/02 09:08:38;;;;;;;1.88;1.58;;;;;;;;;;4987799;28;20057;-68
2022/01/02 09:11:09;;;;;;;3.03;1.67;;;;;;;;;;4985113;28;20133;-68
2022/01/02 09:13:37;;;;;;;4.63;1.52;;;;;;;;;;4988280;28;20129;-68
2022/01/02 09:16:23;;;;;;;3.56;1.63;;;;;;;;;;4436345;28;10001523;-68
2022/01/02 09:18:51;;;;;;;3.35;1.98;;;;;;;;;;1372623;28;10002106;-68
2022/01/02 09:21:21;;;;;;;3.00;1.58;;;;;;;;;;4983131;28;20136;-68
2022/01/02 09:23:49;;;;;;;3.03;1.60;;;;;;;;;;4988795;28;20347;-68
2022/01/02 09:26:18;;;;;;;5.60;1.65;;;;;;;;;;4986361;28;20054;-68
2022/01/02 09:28:46;;;;;;;3.17;1.50;;;;;;;;;;4987403;28;20049;-68
2022/01/02 09:31:14;;;;;;;1.92;1.38;;;;;;;;;;4986599;28;20133;-68
2022/01/02 09:33:43;;;;;;;3.97;1.67;;;;;;;;;;4986613;28;20054;-68
2022/01/02 09:36:11;;;;;;;3.45;1.50;;;;;;;;;;4984225;28;20128;-68
2022/01/02 09:38:42;;;;;;;1.50;1.05;;;;;;;;;;4979963;28;20056;-68
2022/01/02 09:41:10;;;;;;;3.30;1.30;;;;;;;;;;4982349;28;20058;-68
2022/01/02 09:43:39;;;;;;;2.40;1.40;;;;;;;;;;4986881;28;20406;-68
2022/01/02 09:46:07;;;;;;;4.10;1.27;;;;;;;;;;4987823;28;20538;-68
2022/01/02 09:48:36;;;;;;;2.25;1.13;;;;;;;;;;4985731;28;20050;-68
2022/01/02 09:51:07;;;;;;;3.30;1.25;;;;;;;;;;4985923;28;20129;-68
2022/01/02 09:53:35;;;;;;;3.05;1.30;;;;;;;;;;4984019;28;20050;-68
2022/01/02 09:56:08;;;;;;;6.07;1.42;;;;;;;;;;4985294;28;20399;-68
2022/01/02 09:58:38;;;;;;;3.25;1.52;;;;;;;;;;4986684;28;20129;-68
2022/01/02 10:01:09;;;;;;;1.90;0.95;;;;;;;;;;4986499;28;20096;-68
2022/01/02 10:03:43;;;;;;;3.25;0.93;;;;;;;;;;4987594;28;20371;-68
2022/01/02 10:06:11;;;;;;;2.75;0.80;;;;;;;;;;4984848;28;20137;-68
2022/01/02 10:08:40;;;;;;;1.85;0.88;;;;;;;;;;4981680;28;20049;-68
2022/01/02 10:11:16;;;;;;;0.98;0.73;;;;;;;;;;4984012;28;20102;-68
2022/01/02 10:13:46;;;;;;;1.25;0.68;;;;;;;;;;4985809;28;20790;-68
2022/01/02 10:16:22;;;;;;;1.35;0.98;;;;;;;;;;4986964;28;20061;-68
2022/01/02 10:18:52;;;;;;;0.82;0.68;;;;;;;;;;4985565;28;20430;-68
2022/01/02 10:21:34;;;;;;;5.55;0.82;;;;;;;;;;4982411;28;20046;-68
2022/01/02 10:24:13;;;;;;;1.25;0.70;;;;;;;;;;4988977;28;20046;-68
2022/01/02 10:26:43;;;;;;;1.52;0.70;;;;;;;;;;4985775;28;20051;-68
2022/01/02 10:29:16;;;;;;;2.00;0.77;;;;;;;;;;4982486;28;20141;-68
2022/01/02 10:31:44;;;;;;;1.27;0.50;;;;;;;;;;4983853;28;20141;-68
2022/01/02 10:34:14;;;;;;;1.75;0.80;;;;;;;;;;4985668;28;20077;-68
2022/01/02 10:36:42;;;;;;;1.73;0.65;;;;;;;;;;4984995;28;20475;-68
2022/01/02 10:39:12;;;;;;;0.90;0.52;;;;;;;;;;4986300;28;20137;-68
2022/01/02 10:41:41;;;;;;;1.38;0.60;;;;;;;;;;4985561;28;20133;-68
2022/01/02 10:44:26;;;;;;;0.70;0.40;;;;;;;;;;4985768;28;20578;-68
2022/01/02 10:47:14;;;;;;;2.13;0.90;;;;;;;;;;4987185;28;20499;-69
2022/01/02 10:49:53;;;;;;;1.60;0.70;;;;;;;;;;4987509;28;20775;-69
2022/01/02 10:52:22;;;;;;;1.17;0.50;;;;;;;;;;4977665;28;20054;-68
2022/01/02 10:54:51;;;;;;;1.27;0.50;;;;;;;;;;4989072;28;20411;-69
2022/01/02 10:57:19;;;;;;;1.23;0.60;;;;;;;;;;4985885;28;20060;-69
2022/01/02 10:59:49;;;;;;;1.05;0.68;;;;;;;;;;4991525;28;20140;-69
2022/01/02 11:02:18;;;;;;;2.60;0.95;;;;;;;;;;4984936;28;20502;-69
2022/01/02 11:04:48;;;;;;;0.50;0.45;;;;;;;;;;4985416;28;20136;-69
2022/01/02 11:07:37;;;;;;;1.12;0.52;;;;;;;;;;3177125;28;10001672;-70
2022/01/02 11:10:06;;;;;;;1.30;0.60;;;;;;;;;;3265084;28;10002033;-69
2022/01/02 11:12:35;;;;;;;2.25;0.60;;;;;;;;;;4986074;28;20061;-69
2022/01/02 11:15:06;;;;;;;1.80;0.70;;;;;;;;;;4986420;28;20049;-69
2022/01/02 11:17:35;;;;;;;1.52;0.70;;;;;;;;;;4986113;28;20054;-69
2022/01/02 11:20:04;;;;;;;1.15;0.60;;;;;;;;;;4981338;28;20157;-69
2022/01/02 11:22:34;;;;;;;0.85;0.50;;;;;;;;;;4972537;28;20054;-69
2022/01/02 11:25:06;;;;;;;1.95;0.80;;;;;;;;;;4986000;28;20073;-69
2022/01/02 11:27:37;;;;;;;1.63;0.60;;;;;;;;;;4980344;28;20142;-69
2022/01/02 11:30:24;;;;;;;1.88;0.63;;;;;;;;;;4984454;28;20136;-69
2022/01/02 11:33:02;;;;;;;1.00;0.52;;;;;;;;;;4982844;28;20141;-69
2022/01/02 11:35:32;;;;;;;1.50;0.60;;;;;;;;;;4984258;28;20133;-69
2022/01/02 11:38:02;;;;;;;1.95;0.52;;;;;;;;;;4978442;28;20157;-69
2022/01/02 11:40:51;;;;;;;1.08;0.80;;;;;;;;;;4985313;28;20186;-70
2022/01/02 11:43:38;;;;;;;1.15;0.50;;;;;;;;;;4984442;28;20129;-70
2022/01/02 11:46:17;;;;;;;2.17;0.60;;;;;;;;;;4988991;28;20042;-69
2022/01/02 11:49:00;;;;;;;2.03;0.90;;;;;;;;;;4981757;28;20112;-69
2022/01/02 11:51:43;;;;;;;1.92;0.60;;;;;;;;;;4985262;28;20064;-69
2022/01/02 11:54:40;;;;;;;0.95;0.40;;;;;;;;;;4982818;28;20090;-69
2022/01/02 11:57:25;;;;;;;1.25;0.60;;;;;;;;;;4984196;28;20049;-70
2022/01/02 11:59:56;;;;;;;;;;;;;;;;;;4983369;28;20073;-70
2022/01/02 12:02:37;;;;;;;0.90;0.50;;;;;;;;;;4983952;28;20564;-71
2022/01/02 12:05:12;;;;;;;1.10;0.50;;;;;;;;;;4983373;28;20145;-71
2022/01/02 12:07:53;;;;;;;0.90;0.40;;;;;;;;;;4984137;28;20046;-71
2022/01/02 12:10:24;;;;;;;1.58;0.60;;;;;;;;;;4982762;28;20703;-71
2022/01/02 12:13:13;;;;;;;1.00;0.60;;;;;;;;;;4984875;28;20573;-71
2022/01/02 12:16:00;;;;;;;0.73;0.40;;;;;;;;;;4986407;28;20141;-71
2022/01/02 12:18:29;;;;;;;1.15;0.52;;;;;;;;;;4989390;28;20578;-70
2022/01/02 12:21:14;;;;;;;0.85;0.50;;;;;;;;;;4986189;28;20524;-71
2022/01/02 12:23:53;;;;;;;1.80;0.70;;;;;;;;;;4985554;28;20043;-71
2022/01/02 12:26:27;;;;;;;0.47;0.47;;;;;;;;;;4991114;28;21163;-71
2022/01/02 12:29:01;;;;;;;0.82;0.45;;;;;;;;;;4989049;28;20042;-70
2022/01/02 12:31:31;;;;;;;0.60;0.30;;;;;;;;;;4990975;28;20052;-71
2022/01/02 12:34:07;;;;;;;0.77;0.60;;;;;;;;;;4992513;28;20497;-71
2022/01/02 12:36:35;;;;;;;0.63;0.40;;;;;;;;;;4991801;28;20142;-71
2022/01/02 12:39:05;;;;;;;0.68;0.43;;;;;;;;;;4989981;28;20457;-70
2022/01/02 12:41:35;;;;;;;0.80;0.40;;;;;;;;;;4990528;28;20488;-71
2022/01/02 12:44:05;;;;;;;2.58;0.50;;;;;;;;;;4988285;28;20145;-68
2022/01/02 12:46:34;;;;;;;0.68;0.43;;;;;;;;;;4978919;28;20104;-68
2022/01/02 12:49:03;;;;;;;1.45;0.50;;;;;;;;;;4982850;28;20195;-69
2022/01/02 12:51:32;;;;;;;1.02;0.52;;;;;;;;;;4989438;28;20078;-69
2022/01/02 12:54:01;;;;;;;1.05;0.40;;;;;;;;;;4991307;28;20054;-68
2022/01/02 12:56:38;;;;;;;2.15;0.68;;;;;;;;;;4991575;28;20513;-68
2022/01/02 12:59:16;;;;;;;0.43;0.43;;;;;;;;;;4991595;28;20133;-68
2022/01/02 13:01:55;;;;;;;2.53;0.52;;;;;;;;;;4988698;28;20035;-68
2022/01/02 13:04:25;;;;;;;1.65;0.70;;;;;;;;;;4981919;28;20051;-68
2022/01/02 13:06:54;;;;;;;2.40;0.60;;;;;;;;;;4992643;28;20137;-68
2022/01/02 13:09:26;;;;;;;0.60;0.38;;;;;;;;;;4990690;28;20047;-68
2022/01/02 13:11:57;;;;;;;1.52;0.57;;;;;;;;;;4989780;28;20050;-68
2022/01/02 13:14:36;;;;;;;1.88;0.40;;;;;;;;;;4989061;28;20074;-69
2022/01/02 13:17:07;;;;;;;1.23;0.40;;;;;;;;;;4989134;28;20598;-67
2022/01/02 13:19:37;;;;;;;0.70;0.50;;;;;;;;;;4987528;28;20094;-67
2022/01/02 13:22:07;;;;;;;0.82;0.60;;;;;;;;;;4991784;28;20053;-68
2022/01/02 13:24:45;;;;;;;0.50;0.30;;;;;;;;;;1579647;28;10022494;-68
2022/01/02 13:27:15;;;;;;;1.02;0.47;;;;;;;;;;3959143;28;10001502;-68
2022/01/02 13:29:54;;;;;;;1.48;0.40;;;;;;;;;;4992112;28;20149;-68
2022/01/02 13:32:23;;;;;;;1.17;0.70;;;;;;;;;;4991488;28;20470;-68
2022/01/02 13:35:05;;;;;;;2.15;0.77;;;;;;;;;;4991847;28;20149;-68
2022/01/02 13:37:35;;;;;;;1.08;0.50;;;;;;;;;;4973163;28;20146;-68
2022/01/02 13:40:04;;;;;;;2.03;0.60;;;;;;;;;;4986245;28;20074;-68
2022/01/02 13:42:40;;;;;;;0.70;0.47;;;;;;;;;;4991919;28;20081;-68
2022/01/02 13:45:10;;;;;;;0.55;0.43;;;;;;;;;;4991367;28;20133;-69
2022/01/02 13:48:07;;;;;;;1.10;0.57;;;;;;;;;;4991636;28;20057;-69
2022/01/02 13:50:36;;;;;;;0.68;0.50;;;;;;;;;;4988379;28;20085;-68
2022/01/02 13:53:06;;;;;;;0.60;0.40;;;;;;;;;;4987071;28;20074;-68
2022/01/02 13:55:35;;;;;;;0.50;0.40;;;;;;;;;;4991535;28;20104;-68
2022/01/02 13:58:17;;;;;;;0.40;0.30;;;;;;;;;;4991139;28;20043;-68
2022/01/02 14:00:46;;;;;;;0.85;0.50;;;;;;;;;;4991146;28;20086;-68
2022/01/02 14:03:27;;;;;;;0.93;0.55;;;;;;;;;;4992034;28;20061;-68
2022/01/02 14:05:56;;;;;;;0.68;0.40;;;;;;;;;;4990952;28;20050;-68
2022/01/02 14:08:24;;;;;;;1.38;0.60;;;;;;;;;;4991154;28;20057;-67
2022/01/02 14:11:09;;;;;;;0.85;0.60;;;;;;;;;;4976956;28;20054;-68
2022/01/02 14:14:05;;;;;;;1.98;0.55;;;;;;;;;;4990983;28;20054;-67
2022/01/02 14:17:00;;;;;;;1.23;0.50;;;;;;;;;;4988837;28;20472;-67
2022/01/02 14:19:29;;;;;;;1.23;0.80;;;;;;;;;;4991256;28;20050;-67
2022/01/02 14:21:57;;;;;;;0.95;0.60;;;;;;;;;;4990620;28;20406;-67
2022/01/02 14:24:26;;;;;;;1.30;0.73;;;;;;;;;;4990722;28;20078;-68
2022/01/02 14:26:55;;;;;;;1.00;0.60;;;;;;;;;;4986541;28;20045;-68
2022/01/02 14:29:25;;;;;;;0.93;0.70;;;;;;;;;;4990829;28;20133;-69
2022/01/02 14:31:54;;;;;;;2.17;0.70;;;;;;;;;;4990822;28;20082;-67
2022/01/02 14:34:22;;;;;;;1.10;0.70;;;;;;;;;;4988805;28;20050;-68
2022/01/02 14:36:51;;;;;;;1.15;0.95;;;;;;;;;;4990058;28;20053;-67
2022/01/02 14:39:19;;;;;;;1.33;0.77;;;;;;;;;;4990719;28;20296;-68
2022/01/02 14:41:48;;;;;;;1.55;0.50;;;;;;;;;;4987910;28;20042;-68
2022/01/02 14:44:17;;;;;;;1.13;0.50;;;;;;;;;;4986090;28;20054;-67
2022/01/02 14:46:48;;;;;;;1.25;0.60;;;;;;;;;;4991368;28;20046;-67
2022/01/02 14:49:17;;;;;;;1.55;0.55;;;;;;;;;;4980695;28;20551;-68
2022/01/02 14:51:50;;;;;;;5.50;0.80;;;;;;;;;;3693721;28;10024461;-68
2022/01/02 14:54:19;;;;;;;2.25;1.15;;;;;;;;;;1719603;28;10002038;-68
2022/01/02 14:56:47;;;;;;;1.48;0.52;;;;;;;;;;4990605;28;20133;-69
2022/01/02 14:59:16;;;;;;;1.40;0.80;;;;;;;;;;4990820;28;20517;-69
2022/01/02 15:01:46;;;;;;;6.45;1.10;;;;;;;;;;4987391;28;20084;-67
2022/01/02 15:04:15;;;;;;;2.47;1.23;;;;;;;;;;4981984;28;20050;-67
2022/01/02 15:06:44;;;;;;;0.70;0.60;;;;;;;;;;4989806;28;20133;-68